Dades meteomassalio
Diari Summary for Setembre 17, 2017 Units:  English    Metric   Both
« Previous Day
Next Day »
Diari Semanal Mensual Anual Personalitzat
  Maxima: Minima: Mijana:
Temperatura: TemperatureC °F 4.4 °F 13 °F
Rosada: DewpointC °F 1.2 °F 4.4 °F
Humitat: Humidity % 32 % 59 %
Velocitat del vent: WindSpeedKMH mph 0.0 mph 3.3 mph
Racha vent: WindSpeedGustKMH mph - -
Vent:- - SW
Pressio: PressurehPa in 1018.5 in -
Pluja: 0.0 in    
Historical Graphs
 
 
Tabular Data for Setembre 17, 2017
Time Temperature Dew Point Pressure Wind Wind Speed Wind Gust Humidity Rainfall Rate (Hourly) solar Conditions
TemperatureC °F DewpointC °F PressurehPa in Calm     Humidity % HourlyPrecipMM in SolarRadiationWatts/m^2 W/m2 Conditions
00:00 10.6 °F 3.3 °F 1020.5 in SSW 16.7 mph 16.7 mph 61 % 0.0 in 0.0 W/m2 CLR
00:05 10.6 °F 3.1 °F 1020.5 in SSW 16.1 mph 16.1 mph 60 % 0.0 in 0.0 W/m2 CLR
00:10 10.6 °F 3.1 °F 1020.5 in SSW 16.7 mph 16.7 mph 60 % 0.0 in 0.0 W/m2 CLR
00:15 10.6 °F 3.1 °F 1020.5 in SSW 14.8 mph 14.8 mph 60 % 0.0 in 0.0 W/m2 CLR
00:20 10.6 °F 3.1 °F 1020.5 in South 16.7 mph 16.7 mph 60 % 0.0 in 0.0 W/m2 CLR
00:25 10.6 °F 3.1 °F 1020.5 in South 13.0 mph 13.0 mph 60 % 0.0 in 0.0 W/m2 CLR
00:30 10.0 °F 2.6 °F 1020.5 in SSW 16.7 mph 16.7 mph 60 % 0.0 in 0.0 W/m2 CLR
00:35 10.0 °F 2.6 °F 1020.5 in South 13.0 mph 13.0 mph 60 % 0.0 in 0.0 W/m2 CLR
00:40 9.4 °F 2.1 °F 1020.5 in SSW 16.7 mph 16.7 mph 60 % 0.0 in 0.0 W/m2 CLR
00:45 9.4 °F 2.1 °F 1020.9 in SSW 14.8 mph 14.8 mph 60 % 0.0 in 0.0 W/m2 CLR
00:50 8.9 °F 1.6 °F 1020.9 in SSW 14.8 mph 14.8 mph 60 % 0.0 in 0.0 W/m2 CLR
00:55 8.9 °F 1.6 °F 1020.9 in SSW 11.3 mph 11.3 mph 60 % 0.0 in 0.0 W/m2 CLR
01:00 8.3 °F 1.2 °F 1020.9 in SSE 11.1 mph 11.1 mph 61 % 0.0 in 0.0 W/m2 CLR
01:05 8.3 °F 1.7 °F 1020.9 in SSE 11.1 mph 11.1 mph 63 % 0.0 in 0.0 W/m2 CLR
01:10 8.3 °F 2.1 °F 1020.9 in South 7.4 mph 7.4 mph 65 % 0.0 in 0.0 W/m2 CLR
01:15 8.3 °F 2.3 °F 1020.9 in South 6.4 mph 6.4 mph 66 % 0.0 in 0.0 W/m2 CLR
01:20 8.3 °F 2.6 °F 1020.5 in South 11.1 mph 11.1 mph 67 % 0.0 in 0.0 W/m2 CLR
01:25 8.3 °F 2.6 °F 1020.5 in Calm     67 % 0.0 in 0.0 W/m2 CLR
01:30 8.3 °F 2.8 °F 1020.5 in South 12.9 mph 12.9 mph 68 % 0.0 in 0.0 W/m2 CLR
01:35 7.8 °F 2.2 °F 1020.5 in South 9.3 mph 9.3 mph 68 % 0.0 in 0.0 W/m2 CLR
01:40 7.8 °F 2.2 °F 1020.5 in Calm     68 % 0.0 in 0.0 W/m2 CLR
01:45 7.8 °F 2.4 °F 1020.5 in South 6.4 mph 6.4 mph 69 % 0.0 in 0.0 W/m2 CLR
01:50 7.8 °F 2.7 °F 1020.5 in SSE 9.3 mph 9.3 mph 70 % 0.0 in 0.0 W/m2 CLR
01:55 7.8 °F 2.8 °F 1020.5 in South 13.0 mph 13.0 mph 71 % 0.0 in 0.0 W/m2 CLR
02:00 7.8 °F 2.8 °F 1020.5 in South 13.0 mph 13.0 mph 71 % 0.0 in 0.0 W/m2 CLR
02:05 8.3 °F 3.4 °F 1020.9 in SSE 14.8 mph 14.8 mph 71 % 0.0 in 0.0 W/m2 CLR
02:10 8.3 °F 3.2 °F 1020.5 in South 16.7 mph 16.7 mph 70 % 0.0 in 0.0 W/m2 CLR
02:15 8.3 °F 3.2 °F 1020.5 in South 16.7 mph 16.7 mph 70 % 0.0 in 0.0 W/m2 CLR
02:20 8.3 °F 3.2 °F 1020.5 in SSE 14.8 mph 14.8 mph 70 % 0.0 in 0.0 W/m2 CLR
02:25 8.3 °F 3.0 °F 1020.5 in SSE 18.5 mph 18.5 mph 69 % 0.0 in 0.0 W/m2 CLR
02:30 7.8 °F 2.4 °F 1020.5 in South 13.0 mph 13.0 mph 69 % 0.0 in 0.0 W/m2 CLR
02:35 7.8 °F 2.4 °F 1020.5 in South 14.8 mph 14.8 mph 69 % 0.0 in 0.0 W/m2 CLR
02:40 8.3 °F 3.0 °F 1020.5 in South 9.3 mph 9.3 mph 69 % 0.0 in 0.0 W/m2 CLR
02:45 8.3 °F 3.0 °F 1020.5 in SSE 11.1 mph 11.1 mph 69 % 0.0 in 0.0 W/m2 CLR
02:50 8.3 °F 3.2 °F 1020.5 in Calm     70 % 0.0 in 0.0 W/m2 CLR
02:55 7.8 °F 2.8 °F 1020.5 in Calm     71 % 0.0 in 0.0 W/m2 CLR
03:00 7.8 °F 3.1 °F 1020.5 in Calm     72 % 0.0 in 0.0 W/m2 CLR
03:05 7.2 °F 2.7 °F 1020.5 in Calm     73 % 0.0 in 0.0 W/m2 CLR
03:10 7.2 °F 2.9 °F 1020.5 in Calm     74 % 0.0 in 0.0 W/m2 CLR
03:15 7.2 °F 3.1 °F 1020.9 in Calm     75 % 0.0 in 0.0 W/m2 CLR
03:20 7.2 °F 3.1 °F 1020.9 in Calm     75 % 0.0 in 0.0 W/m2 CLR
03:25 7.2 °F 3.3 °F 1020.9 in Calm     76 % 0.0 in 0.0 W/m2 CLR
03:30 7.2 °F 3.4 °F 1020.5 in Calm     77 % 0.0 in 0.0 W/m2 CLR
03:35 7.2 °F 3.4 °F 1020.9 in Calm     77 % 0.0 in 0.0 W/m2 CLR
03:40 6.7 °F 2.9 °F 1020.9 in Calm     77 % 0.0 in 0.0 W/m2 CLR
03:45 6.7 °F 2.9 °F 1020.9 in Calm     77 % 0.0 in 0.0 W/m2 CLR
04:00 6.1 °F 2.6 °F 1020.9 in Calm     78 % 0.0 in 0.0 W/m2 CLR
04:05 6.1 °F 2.7 °F 1020.9 in Calm     79 % 0.0 in 0.0 W/m2 CLR
04:10 6.1 °F 2.7 °F 1020.9 in Calm     79 % 0.0 in 0.0 W/m2 CLR
04:15 6.1 °F 2.7 °F 1021.2 in Calm     79 % 0.0 in 0.0 W/m2 CLR
04:20 5.6 °F 2.2 °F 1021.2 in Calm     79 % 0.0 in 0.0 W/m2 CLR
04:25 5.6 °F 2.4 °F 1021.2 in Calm     80 % 0.0 in 0.0 W/m2 CLR
04:30 5.6 °F 2.2 °F 1021.2 in Calm     79 % 0.0 in 0.0 W/m2 CLR
04:35 5.6 °F 2.4 °F 1021.2 in Calm     80 % 0.0 in 0.0 W/m2 CLR
04:45 5.0 °F 1.8 °F 1021.2 in Calm     80 % 0.0 in 0.0 W/m2 CLR
04:50 5.0 °F 1.8 °F 1020.9 in Calm     80 % 0.0 in 0.0 W/m2 CLR
04:55 5.0 °F 2.0 °F 1020.9 in Calm     81 % 0.0 in 0.0 W/m2 CLR
05:00 5.0 °F 2.0 °F 1020.9 in Calm     81 % 0.0 in 0.0 W/m2 CLR
05:05 5.0 °F 2.2 °F 1020.9 in Calm     82 % 0.0 in 0.0 W/m2 CLR
05:10 5.0 °F 2.2 °F 1020.9 in Calm     82 % 0.0 in 0.0 W/m2 CLR
05:16 5.0 °F 2.2 °F 1020.9 in Calm     82 % 0.0 in 0.0 W/m2 CLR
05:21 5.0 °F 2.3 °F 1020.9 in Calm     83 % 0.0 in 0.0 W/m2 CLR
05:23 5.0 °F 2.3 °F 1020.9 in Calm     83 % 0.0 in 0.0 W/m2 CLR
05:26 5.0 °F 2.3 °F 1020.9 in Calm     83 % 0.0 in 0.0 W/m2 CLR
05:29 5.0 °F 2.3 °F 1020.9 in Calm     83 % 0.0 in 0.0 W/m2 CLR
05:34 5.0 °F 2.5 °F 1020.9 in Calm     84 % 0.0 in 0.0 W/m2 CLR
05:39 5.0 °F 2.5 °F 1020.9 in Calm     84 % 0.0 in 0.0 W/m2 CLR
05:44 5.0 °F 2.5 °F 1020.9 in Calm     84 % 0.0 in 0.0 W/m2 CLR
05:49 5.0 °F 2.5 °F 1020.9 in Calm     84 % 0.0 in 0.0 W/m2 CLR
05:54 5.0 °F 2.7 °F 1020.9 in Calm     85 % 0.0 in 0.0 W/m2 CLR
05:59 5.0 °F 2.7 °F 1020.9 in Calm     85 % 0.0 in 0.0 W/m2 CLR
06:04 5.0 °F 2.7 °F 1020.5 in Calm     85 % 0.0 in 0.0 W/m2 CLR
06:09 5.0 °F 2.8 °F 1020.9 in Calm     86 % 0.0 in 0.0 W/m2 CLR
06:14 5.0 °F 2.8 °F 1020.9 in Calm     86 % 0.0 in 0.0 W/m2 CLR
06:19 5.0 °F 2.8 °F 1020.9 in Calm     86 % 0.0 in 0.0 W/m2 CLR
06:24 5.0 °F 2.8 °F 1020.9 in Calm     86 % 0.0 in 0.0 W/m2 CLR
06:29 5.0 °F 3.0 °F 1020.9 in Calm     87 % 0.0 in 0.0 W/m2 CLR
06:34 5.0 °F 3.0 °F 1020.9 in Calm     87 % 0.0 in 0.0 W/m2 CLR
06:39 5.0 °F 3.0 °F 1020.5 in Calm     87 % 0.0 in 0.0 W/m2 CLR
06:44 5.0 °F 3.2 °F 1020.9 in Calm     88 % 0.0 in 0.0 W/m2 CLR
06:51 5.0 °F 3.2 °F 1020.9 in Calm     88 % 0.0 in 0.0 W/m2 CLR
06:56 5.0 °F 3.2 °F 1020.9 in Calm     88 % 0.0 in 0.0 W/m2 CLR
07:01 5.0 °F 3.2 °F 1020.9 in Calm     88 % 0.0 in 0.0 W/m2 CLR
07:06 5.0 °F 3.2 °F 1020.9 in Calm     88 % 0.0 in 0.0 W/m2 CLR
07:11 5.0 °F 3.2 °F 1021.2 in Calm     88 % 0.0 in 0.0 W/m2 CLR
07:21 5.0 °F 3.2 °F 1021.2 in Calm     88 % 0.0 in 0.0 W/m2 CLR
07:26 5.0 °F 3.3 °F 1021.2 in Calm     89 % 0.0 in 0.0 W/m2 CLR
07:31 5.0 °F 3.3 °F 1021.2 in Calm     89 % 0.0 in 0.0 W/m2 CLR
07:36 5.0 °F 3.3 °F 1021.2 in Calm     89 % 0.0 in 0.0 W/m2 OVC
07:41 5.0 °F 3.3 °F 1021.2 in Calm     89 % 0.0 in 0.0 W/m2 OVC
07:46 4.4 °F 2.8 °F 1021.2 in Calm     89 % 0.0 in 0.0 W/m2 OVC
07:51 5.0 °F 3.3 °F 1021.6 in Calm     89 % 0.0 in 5.0 W/m2 OVC
07:56 5.0 °F 3.3 °F 1021.6 in Calm     89 % 0.0 in 9.0 W/m2 BKN
08:01 5.0 °F 3.3 °F 1021.6 in Calm     89 % 0.0 in 11.0 W/m2 BKN
08:06 5.0 °F 3.5 °F 1021.6 in Calm     90 % 0.0 in 14.0 W/m2 BKN
08:11 4.4 °F 2.9 °F 1021.6 in Calm     90 % 0.0 in 19.0 W/m2 BKN
08:16 4.4 °F 2.9 °F 1021.6 in Calm     90 % 0.0 in 21.0 W/m2 BKN
08:21 4.4 °F 2.9 °F 1021.6 in Calm     90 % 0.0 in 32.0 W/m2 BKN
08:26 4.4 °F 2.9 °F 1021.6 in Calm     90 % 0.0 in 21.0 W/m2 BKN
08:36 4.4 °F 2.8 °F 1021.6 in Calm     89 % 0.0 in 54.0 W/m2 BKN
08:41 5.0 °F 3.3 °F 1021.6 in Calm     89 % 0.0 in 107.0 W/m2 CLR
08:46 5.0 °F 3.2 °F 1021.6 in Calm     88 % 0.0 in 81.0 W/m2 FEW
08:51 5.6 °F 3.7 °F 1021.6 in Calm     88 % 0.0 in 113.0 W/m2 CLR
08:56 5.6 °F 3.6 °F 1021.6 in Calm     87 % 0.0 in 160.0 W/m2 CLR
09:06 6.7 °F 4.3 °F 1021.6 in Calm     85 % 0.0 in 195.0 W/m2 CLR
09:11 6.7 °F 4.0 °F 1021.6 in Calm     83 % 0.0 in 213.0 W/m2 CLR
09:16 7.2 °F 4.2 °F 1021.9 in Calm     81 % 0.0 in 232.0 W/m2 CLR
09:21 7.8 °F 4.6 °F 1021.9 in Calm     80 % 0.0 in 250.0 W/m2 CLR
09:26 8.3 °F 4.7 °F 1021.9 in Calm     78 % 0.0 in 265.0 W/m2 CLR
09:31 8.3 °F 4.2 °F 1021.9 in Calm     75 % 0.0 in 281.0 W/m2 CLR
09:36 8.9 °F 4.5 °F 1021.9 in Calm     74 % 0.0 in 301.0 W/m2 CLR
09:41 9.4 °F 4.7 °F 1021.9 in Calm     72 % 0.0 in 316.0 W/m2 CLR
09:46 10.0 °F 5.0 °F 1021.9 in Calm     71 % 0.0 in 330.0 W/m2 CLR
09:51 10.6 °F 5.1 °F 1022.2 in Calm     69 % 0.0 in 346.0 W/m2 CLR
09:56 11.1 °F 5.6 °F 1022.2 in Calm     69 % 0.0 in 360.0 W/m2 CLR
10:01 11.7 °F 5.7 °F 1021.9 in Calm     67 % 0.0 in 378.0 W/m2 CLR
10:06 11.7 °F 5.7 °F 1022.2 in Calm     67 % 0.0 in 394.0 W/m2 CLR
10:11 12.2 °F 5.8 °F 1022.2 in Calm     65 % 0.0 in 408.0 W/m2 CLR
10:16 12.8 °F 6.3 °F 1022.2 in Calm     65 % 0.0 in 422.0 W/m2 CLR
10:21 12.8 °F 6.3 °F 1022.2 in Calm     65 % 0.0 in 439.0 W/m2 CLR
10:26 13.3 °F 6.4 °F 1022.2 in Calm     63 % 0.0 in 454.0 W/m2 CLR
10:31 13.9 °F 6.5 °F 1022.2 in Calm     61 % 0.0 in 468.0 W/m2 CLR
10:36 13.9 °F 6.5 °F 1022.2 in Calm     61 % 0.0 in 480.0 W/m2 CLR
10:41 14.4 °F 6.3 °F 1022.2 in Calm     58 % 0.0 in 492.0 W/m2 CLR
10:46 14.4 °F 5.8 °F 1022.2 in Calm     56 % 0.0 in 510.0 W/m2 CLR
10:51 14.4 °F 5.5 °F 1022.2 in Calm     55 % 0.0 in 522.0 W/m2 CLR
10:56 15.0 °F 5.5 °F 1022.2 in Calm     53 % 0.0 in 534.0 W/m2 CLR
11:01 15.0 °F 5.5 °F 1022.2 in Calm     53 % 0.0 in 543.0 W/m2 CLR
11:07 15.6 °F 6.3 °F 1021.9 in Calm     54 % 0.0 in 563.0 W/m2 CLR
11:11 15.6 °F 5.2 °F 1021.9 in Calm     50 % 0.0 in 575.0 W/m2 CLR
11:16 16.1 °F 5.4 °F 1021.9 in Calm     49 % 0.0 in 585.0 W/m2 CLR
11:22 16.1 °F 5.7 °F 1021.9 in Calm     50 % 0.0 in 599.0 W/m2 CLR
11:27 16.1 °F 5.7 °F 1021.9 in Calm     50 % 0.0 in 610.0 W/m2 CLR
11:32 16.1 °F 5.4 °F 1021.9 in Calm     49 % 0.0 in 621.0 W/m2 CLR
11:37 16.7 °F 5.9 °F 1021.6 in Calm     49 % 0.0 in 631.0 W/m2 CLR
11:42 17.2 °F 6.4 °F 1021.6 in Calm     49 % 0.0 in 643.0 W/m2 CLR
11:47 17.2 °F 5.8 °F 1021.6 in Calm     47 % 0.0 in 654.0 W/m2 CLR
11:52 17.8 °F 7.2 °F 1021.6 in Calm     50 % 0.0 in 663.0 W/m2 CLR
11:57 18.3 °F 7.1 °F 1021.6 in NNW 5.6 mph 5.6 mph 48 % 0.0 in 671.0 W/m2 CLR
12:02 18.3 °F 6.8 °F 1021.6 in NNE 1.9 mph   47 % 0.0 in 682.0 W/m2 CLR
12:07 18.3 °F 6.8 °F 1021.6 in Calm     47 % 0.0 in 691.0 W/m2 CLR
12:12 18.9 °F 7.3 °F 1021.6 in Calm     47 % 0.0 in 698.0 W/m2 CLR
12:17 18.9 °F 7.3 °F 1021.6 in North 3.7 mph   47 % 0.0 in 705.0 W/m2 CLR
12:22 18.9 °F 7.3 °F 1021.6 in Calm     47 % 0.0 in 714.0 W/m2 CLR
12:27 18.9 °F 7.3 °F 1021.6 in Calm     47 % 0.0 in 721.0 W/m2 CLR
12:32 18.9 °F 7.3 °F 1021.2 in North 5.6 mph 5.6 mph 47 % 0.0 in 729.0 W/m2 CLR
12:37 19.4 °F 7.8 °F 1021.2 in Calm     47 % 0.0 in 737.0 W/m2 CLR
12:42 19.4 °F 7.8 °F 1021.2 in NNW 3.7 mph 3.7 mph 47 % 0.0 in 744.0 W/m2 CLR
12:47 19.4 °F 7.5 °F 1021.2 in Calm     46 % 0.0 in 751.0 W/m2 CLR
12:52 20.0 °F 8.0 °F 1021.2 in NE 4.8 mph 4.8 mph 46 % 0.0 in 758.0 W/m2 CLR
12:57 19.4 °F 7.2 °F 1021.2 in North 3.2 mph 3.2 mph 45 % 0.0 in 765.0 W/m2 CLR
13:02 20.0 °F 7.7 °F 1020.9 in Calm     45 % 0.0 in 735.0 W/m2 CLR
13:07 20.6 °F 7.9 °F 1020.9 in Calm     44 % 0.0 in 779.0 W/m2 CLR
13:12 20.0 °F 7.4 °F 1020.9 in ENE 5.6 mph 5.6 mph 44 % 0.0 in 691.0 W/m2 CLR
13:17 20.0 °F 7.1 °F 1020.9 in NW 5.6 mph 5.6 mph 43 % 0.0 in 759.0 W/m2 CLR
13:22 20.6 °F 7.6 °F 1020.5 in NNW 1.6 mph 1.6 mph 43 % 0.0 in 782.0 W/m2 CLR
13:27 20.6 °F 7.2 °F 1020.5 in NNW 9.3 mph 9.3 mph 42 % 0.0 in 786.0 W/m2 CLR
13:32 21.1 °F 7.3 °F 1020.5 in NNE 3.7 mph 3.7 mph 41 % 0.0 in 788.0 W/m2 CLR
13:37 21.1 °F 7.3 °F 1020.5 in North 5.6 mph 5.6 mph 41 % 0.0 in 788.0 W/m2 CLR
13:42 21.1 °F 7.3 °F 1020.5 in North 5.6 mph 5.6 mph 41 % 0.0 in 788.0 W/m2 CLR
13:47 21.1 °F 7.0 °F 1020.5 in NNE 4.8 mph 4.8 mph 40 % 0.0 in 795.0 W/m2 CLR
13:52 21.1 °F 7.0 °F 1020.2 in NW 5.6 mph 5.6 mph 40 % 0.0 in 791.0 W/m2 CLR
13:53 21.1 °F 7.0 °F 1020.2 in NNW 5.6 mph 5.6 mph 40 % 0.0 in 791.0 W/m2 CLR
13:58 21.1 °F 7.3 °F 1020.2 in North 5.6 mph 5.6 mph 41 % 0.0 in 784.0 W/m2 CLR
14:03 21.1 °F 6.6 °F 1020.2 in NE 5.6 mph 5.6 mph 39 % 0.0 in 782.0 W/m2 CLR
14:08 21.7 °F 7.5 °F 1020.2 in North 8.0 mph 8.0 mph 40 % 0.0 in 763.0 W/m2 CLR
14:13 21.7 °F 6.7 °F 1019.9 in ENE 7.4 mph 7.9 mph 38 % 0.0 in 751.0 W/m2 CLR
14:18 22.2 °F 7.2 °F 1019.9 in Calm     38 % 0.0 in 793.0 W/m2 CLR
14:23 22.8 °F 6.9 °F 1019.9 in NNE 7.4 mph 7.4 mph 36 % 0.0 in 823.0 W/m2 CLR
14:28 21.7 °F 6.3 °F 1019.5 in NNE 7.4 mph 7.4 mph 37 % 0.0 in 707.0 W/m2 CLR
14:33 22.2 °F 6.4 °F 1019.5 in NE 3.7 mph 3.7 mph 36 % 0.0 in 700.0 W/m2 CLR
14:38 21.7 °F 5.6 °F 1019.5 in NE 5.6 mph 5.6 mph 35 % 0.0 in 673.0 W/m2 CLR
14:43 21.7 °F 5.9 °F 1019.5 in North 5.6 mph 5.6 mph 36 % 0.0 in 752.0 W/m2 CLR
14:48 21.7 °F 5.9 °F 1019.5 in NNE 5.6 mph   36 % 0.0 in 740.0 W/m2 CLR
14:53 22.2 °F 7.2 °F 1019.5 in NW 13.0 mph 13.0 mph 38 % 0.0 in 754.0 W/m2 CLR
14:58 22.2 °F 6.0 °F 1019.2 in NNW 7.4 mph 7.4 mph 35 % 0.0 in 802.0 W/m2 CLR
15:03 22.2 °F 6.4 °F 1019.2 in Calm     36 % 0.0 in 719.0 W/m2 CLR
15:08 22.2 °F 6.0 °F 1019.2 in NW 11.1 mph 11.1 mph 35 % 0.0 in 671.0 W/m2 CLR
15:13 22.2 °F 6.8 °F 1019.2 in NW 5.6 mph 5.6 mph 37 % 0.0 in 772.0 W/m2 CLR
15:18 22.2 °F 6.0 °F 1018.8 in NNW 14.8 mph 14.8 mph 35 % 0.0 in 680.0 W/m2 CLR
15:23 22.2 °F 5.6 °F 1018.8 in NW 18.5 mph 18.5 mph 34 % 0.0 in 770.0 W/m2 CLR
15:28 22.2 °F 5.6 °F 1018.8 in NW 13.0 mph 13.0 mph 34 % 0.0 in 659.0 W/m2 CLR
15:33 22.2 °F 5.2 °F 1018.8 in North 6.4 mph 6.4 mph 33 % 0.0 in 756.0 W/m2 CLR
15:38 22.2 °F 5.2 °F 1018.8 in North 7.4 mph 7.4 mph 33 % 0.0 in 621.0 W/m2 CLR
15:43 22.2 °F 5.2 °F 1018.8 in NNW 9.3 mph 9.3 mph 33 % 0.0 in 703.0 W/m2 CLR
15:48 22.8 °F 6.1 °F 1018.8 in NNW 16.7 mph 16.7 mph 34 % 0.0 in 631.0 W/m2 CLR
15:53 22.2 °F 5.6 °F 1018.8 in North 9.3 mph 9.3 mph 34 % 0.0 in 668.0 W/m2 CLR
15:58 22.2 °F 6.4 °F 1018.8 in North 9.3 mph 9.3 mph 36 % 0.0 in 687.0 W/m2 CLR
16:03 22.8 °F 6.9 °F 1018.8 in NW 14.8 mph 14.8 mph 36 % 0.0 in 619.0 W/m2 CLR
16:08 22.2 °F 5.6 °F 1018.8 in NNW 14.8 mph 14.8 mph 34 % 0.0 in 545.0 W/m2 CLR
16:13 21.7 °F 5.1 °F 1018.8 in NW 14.8 mph 14.8 mph 34 % 0.0 in 283.0 W/m2 CLR
16:18 21.1 °F 4.6 °F 1018.8 in NW 7.4 mph 7.4 mph 34 % 0.0 in 388.0 W/m2 CLR
16:23 21.7 °F 5.6 °F 1018.8 in NW 11.1 mph 11.1 mph 35 % 0.0 in 712.0 W/m2 CLR
16:28 22.2 °F 5.2 °F 1018.5 in NW 20.4 mph 20.4 mph 33 % 0.0 in 622.0 W/m2 CLR
16:33 22.2 °F 5.2 °F 1018.5 in NW 5.6 mph 5.6 mph 33 % 0.0 in 640.0 W/m2 CLR
16:38 22.2 °F 5.2 °F 1018.5 in WNW 3.7 mph 3.7 mph 33 % 0.0 in 362.0 W/m2 CLR
16:43 22.2 °F 5.2 °F 1018.5 in NW 9.3 mph 9.3 mph 33 % 0.0 in 515.0 W/m2 CLR
16:48 22.2 °F 5.2 °F 1018.5 in NNW 5.6 mph 5.6 mph 33 % 0.0 in 529.0 W/m2 CLR
16:53 22.2 °F 4.7 °F 1018.5 in NW 9.3 mph 9.3 mph 32 % 0.0 in 415.0 W/m2 CLR
16:58 21.7 °F 4.2 °F 1018.5 in NNW 7.4 mph 7.4 mph 32 % 0.0 in 253.0 W/m2 CLR
17:03 21.7 °F 5.1 °F 1018.5 in NNW 4.8 mph 4.8 mph 34 % 0.0 in 329.0 W/m2 CLR
17:08 21.7 °F 4.7 °F 1018.5 in Calm     33 % 0.0 in 262.0 W/m2 CLR
17:13 21.7 °F 4.7 °F 1018.5 in NNW 5.6 mph 5.6 mph 33 % 0.0 in 234.0 W/m2 CLR
17:18 21.1 °F 4.2 °F 1018.5 in NNW 6.4 mph 6.4 mph 33 % 0.0 in 213.0 W/m2 CLR
17:23 21.1 °F 4.6 °F 1018.5 in WNW 3.7 mph 3.7 mph 34 % 0.0 in 195.0 W/m2 CLR
17:28 21.1 °F 4.2 °F 1018.5 in NW 5.6 mph 5.6 mph 33 % 0.0 in 188.0 W/m2 CLR
17:33 21.1 °F 4.6 °F 1018.5 in WNW 5.6 mph 5.6 mph 34 % 0.0 in 179.0 W/m2 CLR
17:38 21.1 °F 4.2 °F 1018.5 in NW 7.4 mph 7.4 mph 33 % 0.0 in 186.0 W/m2 CLR
17:43 20.6 °F 4.1 °F 1018.5 in NW 9.3 mph 9.3 mph 34 % 0.0 in 186.0 W/m2 CLR
17:48 20.6 °F 4.1 °F 1018.5 in NW 11.1 mph 11.1 mph 34 % 0.0 in 144.0 W/m2 CLR
17:53 20.6 °F 4.6 °F 1018.5 in NW 5.6 mph 5.6 mph 35 % 0.0 in 151.0 W/m2 CLR
17:58 20.6 °F 4.6 °F 1018.5 in NW 16.7 mph 16.7 mph 35 % 0.0 in 163.0 W/m2 CLR
18:03 20.6 °F 4.9 °F 1018.5 in Calm     36 % 0.0 in 158.0 W/m2 CLR
18:08 20.6 °F 4.6 °F 1018.5 in NW 5.6 mph 5.6 mph 35 % 0.0 in 141.0 W/m2 CLR
18:13 20.6 °F 5.3 °F 1018.5 in NW 3.2 mph 3.2 mph 37 % 0.0 in 141.0 W/m2 CLR
18:18 20.6 °F 4.9 °F 1018.5 in Calm   0.3 mph 36 % 0.0 in 179.0 W/m2 CLR
18:23 20.6 °F 5.3 °F 1018.5 in Calm     37 % 0.0 in 142.0 W/m2 CLR
18:29 20.6 °F 4.9 °F 1018.5 in NW 5.6 mph   36 % 0.0 in 111.0 W/m2 CLR
18:34 20.0 °F 4.4 °F 1018.5 in Calm     36 % 0.0 in 100.0 W/m2 CLR
18:39 20.0 °F 4.4 °F 1018.5 in WNW 5.6 mph 5.6 mph 36 % 0.0 in 90.0 W/m2 CLR
18:44 20.0 °F 4.4 °F 1018.5 in WNW 3.7 mph 3.7 mph 36 % 0.0 in 79.0 W/m2 CLR
18:49 19.4 °F 4.4 °F 1018.5 in WNW 5.6 mph   37 % 0.0 in 93.0 W/m2 FEW
18:54 19.4 °F 4.4 °F 1018.5 in Calm     37 % 0.0 in 98.0 W/m2 CLR
18:59 18.9 °F 4.3 °F 1018.5 in Calm     38 % 0.0 in 65.0 W/m2 CLR
19:04 18.3 °F 3.8 °F 1018.5 in Calm     38 % 0.0 in 44.0 W/m2 FEW
19:09 18.3 °F 3.8 °F 1018.5 in Calm     38 % 0.0 in 37.0 W/m2 BKN
19:14 17.8 °F 3.3 °F 1018.5 in Calm     38 % 0.0 in 33.0 W/m2 BKN
19:19 17.2 °F 3.1 °F 1018.5 in Calm     39 % 0.0 in 42.0 W/m2 BKN
19:24 16.7 °F 3.0 °F 1018.8 in Calm     40 % 0.0 in 44.0 W/m2 BKN
19:29 16.1 °F 2.5 °F 1018.5 in Calm     40 % 0.0 in 53.0 W/m2 SCT
19:34 16.1 °F 2.1 °F 1018.5 in Calm     39 % 0.0 in 58.0 W/m2 SCT
19:39 16.1 °F 2.1 °F 1018.5 in Calm     39 % 0.0 in 46.0 W/m2 SCT
19:44 16.1 °F 3.2 °F 1018.5 in Calm     42 % 0.0 in 26.0 W/m2 BKN
19:49 15.6 °F 2.0 °F 1018.5 in Calm     40 % 0.0 in 18.0 W/m2 BKN
19:54 15.6 °F 2.3 °F 1018.5 in Calm     41 % 0.0 in 12.0 W/m2 BKN
19:59 15.0 °F 2.5 °F 1018.8 in Calm     43 % 0.0 in 7.0 W/m2 BKN
20:04 15.0 °F 2.2 °F 1018.8 in Calm     42 % 0.0 in 5.0 W/m2 OVC
20:09 14.4 °F 1.7 °F 1018.8 in Calm     42 % 0.0 in 0.0 W/m2 OVC
20:14 14.4 °F 2.9 °F 1018.8 in Calm     46 % 0.0 in 0.0 W/m2 OVC
20:19 13.9 °F 2.8 °F 1018.8 in Calm     47 % 0.0 in 0.0 W/m2 CLR
20:24 13.9 °F 3.1 °F 1018.8 in Calm     48 % 0.0 in 0.0 W/m2 CLR
20:29 13.9 °F 4.4 °F 1018.8 in Calm     53 % 0.0 in 0.0 W/m2 CLR
20:34 13.9 °F 3.9 °F 1018.8 in Calm     51 % 0.0 in 0.0 W/m2 CLR
20:39 15.0 °F 5.5 °F 1018.8 in Calm     53 % 0.0 in 0.0 W/m2 CLR
20:44 14.4 °F 4.4 °F 1019.2 in Calm     51 % 0.0 in 0.0 W/m2 CLR
20:49 14.4 °F 5.8 °F 1018.8 in Calm     56 % 0.0 in 0.0 W/m2 CLR
20:54 13.9 °F 5.8 °F 1019.2 in Calm     58 % 0.0 in 0.0 W/m2 CLR
20:59 13.9 °F 5.2 °F 1019.2 in Calm     56 % 0.0 in 0.0 W/m2 CLR
21:04 13.3 °F 5.0 °F 1019.2 in Calm     57 % 0.0 in 0.0 W/m2 CLR
21:09 13.3 °F 5.2 °F 1019.5 in Calm     58 % 0.0 in 0.0 W/m2 CLR
21:14 13.3 °F 5.7 °F 1019.2 in Calm     60 % 0.0 in 0.0 W/m2 CLR
21:19 12.8 °F 5.4 °F 1019.5 in Calm     61 % 0.0 in 0.0 W/m2 CLR
21:24 12.8 °F 5.4 °F 1019.2 in Calm     61 % 0.0 in 0.0 W/m2 CLR
21:29 12.8 °F 5.4 °F 1019.2 in Calm     61 % 0.0 in 0.0 W/m2 CLR
21:39 12.8 °F 5.7 °F 1019.5 in Calm     62 % 0.0 in 0.0 W/m2 CLR
21:44 12.2 °F 5.2 °F 1019.9 in Calm     62 % 0.0 in 0.0 W/m2 CLR
21:49 12.2 °F 5.4 °F 1019.9 in Calm     63 % 0.0 in 0.0 W/m2 CLR
21:54 12.2 °F 5.6 °F 1019.9 in Calm     64 % 0.0 in 0.0 W/m2 CLR
21:59 12.2 °F 5.8 °F 1019.9 in Calm     65 % 0.0 in 0.0 W/m2 CLR
22:04 12.2 °F 5.4 °F 1019.9 in Calm     63 % 0.0 in 0.0 W/m2 CLR
22:09 12.2 °F 5.4 °F 1019.9 in Calm     63 % 0.0 in 0.0 W/m2 CLR
22:14 12.2 °F 5.6 °F 1019.9 in Calm     64 % 0.0 in 0.0 W/m2 CLR
22:19 12.2 °F 5.6 °F 1019.9 in Calm     64 % 0.0 in 0.0 W/m2 CLR
22:24 12.2 °F 5.2 °F 1019.9 in Calm     62 % 0.0 in 0.0 W/m2 CLR
22:29 11.7 °F 4.6 °F 1020.2 in Calm     62 % 0.0 in 0.0 W/m2 CLR
22:34 11.7 °F 5.1 °F 1020.2 in Calm     64 % 0.0 in 0.0 W/m2 CLR
22:39 11.1 °F 4.8 °F 1020.2 in Calm     65 % 0.0 in 0.0 W/m2 CLR
22:49 11.1 °F 5.0 °F 1019.9 in Calm     66 % 0.0 in 0.0 W/m2 CLR
22:54 10.6 °F 4.4 °F 1019.9 in Calm     66 % 0.0 in 0.0 W/m2 CLR
22:59 10.6 °F 4.2 °F 1020.2 in Calm     65 % 0.0 in 0.0 W/m2 CLR
23:04 10.6 °F 4.7 °F 1020.2 in Calm     67 % 0.0 in 0.0 W/m2 CLR
23:09 10.6 °F 4.7 °F 1020.2 in Calm     67 % 0.0 in 0.0 W/m2 CLR
23:14 10.6 °F 4.7 °F 1020.2 in Calm     67 % 0.0 in 0.0 W/m2 CLR
23:19 10.6 °F 4.9 °F 1020.2 in Calm     68 % 0.0 in 0.0 W/m2 CLR
23:24 10.6 °F 4.9 °F 1020.2 in Calm     68 % 0.0 in 0.0 W/m2 CLR
23:29 10.6 °F 4.9 °F 1020.2 in Calm     68 % 0.0 in 0.0 W/m2 CLR
23:34 11.1 °F 5.6 °F 1020.2 in Calm     69 % 0.0 in 0.0 W/m2 CLR
23:39 11.1 °F 5.6 °F 1020.2 in Calm     69 % 0.0 in 0.0 W/m2 CLR
23:44 11.1 °F 5.4 °F 1020.2 in Calm     68 % 0.0 in 0.0 W/m2 CLR
23:49 11.1 °F 5.2 °F 1020.2 in Calm     67 % 0.0 in 0.0 W/m2 CLR
23:54 11.1 °F 5.2 °F 1020.2 in Calm     67 % 0.0 in 0.0 W/m2 CLR
23:59 10.6 °F 4.7 °F 1020.2 in Calm     67 % 0.0 in 0.0 W/m2 CLR
Lo Temps de Massalio
Compliments of Weather Underground - 1.25 mb